sensor_id;sensor_type;location;lat;lon;timestamp;pressure;altitude;pressure_sealevel;temperature;humidity
23427;BME280;41148;45.420;10.952;2023-09-30T00:01:01;101280.47;;;19.16;66.66
23427;BME280;41148;45.420;10.952;2023-09-30T00:03:29;101285.78;;;19.18;66.29
23427;BME280;41148;45.420;10.952;2023-09-30T00:05:56;101292.78;;;19.22;66.74
23427;BME280;41148;45.420;10.952;2023-09-30T00:08:25;101292.28;;;19.31;66.43
23427;BME280;41148;45.420;10.952;2023-09-30T00:10:55;101277.38;;;19.24;66.90
23427;BME280;41148;45.420;10.952;2023-09-30T00:13:22;101278.94;;;19.28;66.81
23427;BME280;41148;45.420;10.952;2023-09-30T00:15:51;101278.81;;;19.14;67.10
23427;BME280;41148;45.420;10.952;2023-09-30T00:18:22;101281.34;;;19.17;67.35
23427;BME280;41148;45.420;10.952;2023-09-30T00:20:50;101265.31;;;19.14;67.27
23427;BME280;41148;45.420;10.952;2023-09-30T00:23:27;101262.34;;;19.19;67.13
23427;BME280;41148;45.420;10.952;2023-09-30T00:25:56;101276.66;;;19.21;66.75
23427;BME280;41148;45.420;10.952;2023-09-30T00:28:23;101271.81;;;19.10;66.96
23427;BME280;41148;45.420;10.952;2023-09-30T00:30:53;101263.56;;;19.13;66.95
23427;BME280;41148;45.420;10.952;2023-09-30T00:33:23;101267.88;;;19.00;67.36
23427;BME280;41148;45.420;10.952;2023-09-30T00:35:52;101260.34;;;18.89;68.01
23427;BME280;41148;45.420;10.952;2023-09-30T00:38:20;101268.06;;;18.97;68.01
23427;BME280;41148;45.420;10.952;2023-09-30T00:40:55;101262.47;;;19.00;67.76
23427;BME280;41148;45.420;10.952;2023-09-30T00:43:28;101265.66;;;18.91;67.87
23427;BME280;41148;45.420;10.952;2023-09-30T00:46:04;101269.41;;;18.88;68.04
23427;BME280;41148;45.420;10.952;2023-09-30T00:48:37;101267.84;;;18.84;68.09
23427;BME280;41148;45.420;10.952;2023-09-30T00:51:10;101272.47;;;18.82;68.54
23427;BME280;41148;45.420;10.952;2023-09-30T00:53:38;101269.91;;;18.79;68.70
23427;BME280;41148;45.420;10.952;2023-09-30T00:56:07;101279.22;;;18.73;69.10
23427;BME280;41148;45.420;10.952;2023-09-30T00:58:35;101277.47;;;18.72;68.86
23427;BME280;41148;45.420;10.952;2023-09-30T01:01:04;101284.03;;;18.84;68.73
23427;BME280;41148;45.420;10.952;2023-09-30T01:03:32;101269.50;;;18.86;68.63
23427;BME280;41148;45.420;10.952;2023-09-30T01:06:02;101280.38;;;18.85;68.73
23427;BME280;41148;45.420;10.952;2023-09-30T01:08:30;101293.09;;;18.83;68.41
23427;BME280;41148;45.420;10.952;2023-09-30T01:10:59;101287.38;;;18.72;68.47
23427;BME280;41148;45.420;10.952;2023-09-30T01:13:34;101291.75;;;18.74;68.53
23427;BME280;41148;45.420;10.952;2023-09-30T01:16:06;101289.06;;;18.74;68.45
23427;BME280;41148;45.420;10.952;2023-09-30T01:18:37;101289.38;;;18.68;68.83
23427;BME280;41148;45.420;10.952;2023-09-30T01:21:06;101285.19;;;18.61;69.61
23427;BME280;41148;45.420;10.952;2023-09-30T01:23:35;101284.19;;;18.64;69.37
23427;BME280;41148;45.420;10.952;2023-09-30T01:26:10;101271.88;;;18.41;69.36
23427;BME280;41148;45.420;10.952;2023-09-30T01:28:40;101284.09;;;18.48;69.52
23427;BME280;41148;45.420;10.952;2023-09-30T01:31:07;101285.75;;;18.50;69.67
23427;BME280;41148;45.420;10.952;2023-09-30T01:33:35;101274.88;;;18.52;69.14
23427;BME280;41148;45.420;10.952;2023-09-30T01:36:03;101268.22;;;18.59;69.10
23427;BME280;41148;45.420;10.952;2023-09-30T01:38:31;101273.63;;;18.59;69.25
23427;BME280;41148;45.420;10.952;2023-09-30T01:40:58;101253.63;;;18.63;68.90
23427;BME280;41148;45.420;10.952;2023-09-30T01:43:27;101258.69;;;18.52;69.17
23427;BME280;41148;45.420;10.952;2023-09-30T01:45:55;101262.03;;;18.40;69.48
23427;BME280;41148;45.420;10.952;2023-09-30T01:48:27;101256.97;;;18.34;70.06
23427;BME280;41148;45.420;10.952;2023-09-30T01:51:01;101259.41;;;18.38;70.13
23427;BME280;41148;45.420;10.952;2023-09-30T01:53:32;101269.16;;;18.41;70.34
23427;BME280;41148;45.420;10.952;2023-09-30T01:56:00;101274.25;;;18.29;70.75
23427;BME280;41148;45.420;10.952;2023-09-30T01:58:28;101275.34;;;18.43;70.29
23427;BME280;41148;45.420;10.952;2023-09-30T02:01:04;101257.19;;;18.46;70.13
23427;BME280;41148;45.420;10.952;2023-09-30T02:03:31;101255.53;;;18.44;70.40
23427;BME280;41148;45.420;10.952;2023-09-30T02:05:59;101260.44;;;18.36;71.00
23427;BME280;41148;45.420;10.952;2023-09-30T02:08:28;101259.72;;;18.32;71.17
23427;BME280;41148;45.420;10.952;2023-09-30T02:10:56;101274.81;;;18.36;71.21
23427;BME280;41148;45.420;10.952;2023-09-30T02:13:23;101262.69;;;18.45;71.00
23427;BME280;41148;45.420;10.952;2023-09-30T02:15:51;101250.06;;;18.45;70.76
23427;BME280;41148;45.420;10.952;2023-09-30T02:18:21;101244.09;;;18.56;70.22
23427;BME280;41148;45.420;10.952;2023-09-30T02:20:50;101252.28;;;18.54;70.52
23427;BME280;41148;45.420;10.952;2023-09-30T02:23:18;101245.28;;;18.50;70.71
23427;BME280;41148;45.420;10.952;2023-09-30T02:25:49;101246.19;;;18.34;71.32
23427;BME280;41148;45.420;10.952;2023-09-30T02:28:17;101250.06;;;18.28;71.57
23427;BME280;41148;45.420;10.952;2023-09-30T02:30:45;101261.13;;;18.22;72.27
23427;BME280;41148;45.420;10.952;2023-09-30T02:33:17;101254.78;;;18.23;71.67
23427;BME280;41148;45.420;10.952;2023-09-30T02:35:47;101241.38;;;18.21;71.28
23427;BME280;41148;45.420;10.952;2023-09-30T02:38:15;101258.22;;;18.26;71.18
23427;BME280;41148;45.420;10.952;2023-09-30T02:40:45;101242.13;;;18.25;71.03
23427;BME280;41148;45.420;10.952;2023-09-30T02:43:13;101259.59;;;18.35;70.43
23427;BME280;41148;45.420;10.952;2023-09-30T02:45:41;101257.75;;;18.36;70.05
23427;BME280;41148;45.420;10.952;2023-09-30T02:48:11;101256.78;;;18.19;70.56
23427;BME280;41148;45.420;10.952;2023-09-30T02:50:42;101237.13;;;18.17;70.54
23427;BME280;41148;45.420;10.952;2023-09-30T02:53:13;101229.72;;;18.21;70.53
23427;BME280;41148;45.420;10.952;2023-09-30T02:55:42;101245.13;;;18.19;70.86
23427;BME280;41148;45.420;10.952;2023-09-30T02:58:13;101239.06;;;18.14;71.14
23427;BME280;41148;45.420;10.952;2023-09-30T03:00:48;101249.16;;;18.10;71.06
23427;BME280;41148;45.420;10.952;2023-09-30T03:03:16;101246.94;;;18.18;71.16
23427;BME280;41148;45.420;10.952;2023-09-30T03:05:48;101231.56;;;18.20;70.71
23427;BME280;41148;45.420;10.952;2023-09-30T03:08:17;101234.56;;;18.14;70.84
23427;BME280;41148;45.420;10.952;2023-09-30T03:10:45;101230.84;;;18.17;70.80
23427;BME280;41148;45.420;10.952;2023-09-30T03:13:13;101228.16;;;18.17;70.89
23427;BME280;41148;45.420;10.952;2023-09-30T03:15:41;101240.28;;;18.08;71.52
23427;BME280;41148;45.420;10.952;2023-09-30T03:18:08;101231.44;;;18.05;71.71
23427;BME280;41148;45.420;10.952;2023-09-30T03:20:36;101227.97;;;18.02;72.07
23427;BME280;41148;45.420;10.952;2023-09-30T03:23:10;101225.84;;;18.09;71.60
23427;BME280;41148;45.420;10.952;2023-09-30T03:25:41;101231.44;;;18.05;71.63
23427;BME280;41148;45.420;10.952;2023-09-30T03:28:13;101226.56;;;17.95;72.11
23427;BME280;41148;45.420;10.952;2023-09-30T03:30:42;101236.16;;;17.82;72.96
23427;BME280;41148;45.420;10.952;2023-09-30T03:33:09;101220.31;;;17.76;73.12
23427;BME280;41148;45.420;10.952;2023-09-30T03:35:39;101243.69;;;17.76;73.99
23427;BME280;41148;45.420;10.952;2023-09-30T03:38:07;101239.03;;;17.79;73.44
23427;BME280;41148;45.420;10.952;2023-09-30T03:40:40;101236.34;;;17.79;73.25
23427;BME280;41148;45.420;10.952;2023-09-30T03:43:07;101233.47;;;17.82;73.55
23427;BME280;41148;45.420;10.952;2023-09-30T03:45:37;101237.13;;;17.81;73.27
23427;BME280;41148;45.420;10.952;2023-09-30T03:48:07;101223.91;;;17.94;72.74
23427;BME280;41148;45.420;10.952;2023-09-30T03:50:34;101218.75;;;17.89;72.80
23427;BME280;41148;45.420;10.952;2023-09-30T03:53:03;101227.94;;;17.85;73.18
23427;BME280;41148;45.420;10.952;2023-09-30T03:55:32;101221.38;;;17.91;72.90
23427;BME280;41148;45.420;10.952;2023-09-30T03:58:01;101242.22;;;18.05;72.47
23427;BME280;41148;45.420;10.952;2023-09-30T04:00:31;101230.75;;;18.01;72.43
23427;BME280;41148;45.420;10.952;2023-09-30T04:02:59;101222.81;;;17.98;72.49
23427;BME280;41148;45.420;10.952;2023-09-30T04:05:27;101223.03;;;17.93;72.59
23427;BME280;41148;45.420;10.952;2023-09-30T04:07:57;101228.34;;;17.95;73.03
23427;BME280;41148;45.420;10.952;2023-09-30T04:10:26;101221.38;;;17.91;73.00
23427;BME280;41148;45.420;10.952;2023-09-30T04:12:56;101226.25;;;17.83;73.34
23427;BME280;41148;45.420;10.952;2023-09-30T04:15:24;101218.97;;;17.85;73.45
23427;BME280;41148;45.420;10.952;2023-09-30T04:17:51;101224.94;;;17.91;73.25
23427;BME280;41148;45.420;10.952;2023-09-30T04:20:23;101206.94;;;17.92;72.98
23427;BME280;41148;45.420;10.952;2023-09-30T04:22:56;101221.03;;;17.80;73.69
23427;BME280;41148;45.420;10.952;2023-09-30T04:25:25;101212.88;;;17.81;73.72
23427;BME280;41148;45.420;10.952;2023-09-30T04:27:59;101223.03;;;17.93;73.75
23427;BME280;41148;45.420;10.952;2023-09-30T04:30:30;101213.44;;;17.88;73.47
23427;BME280;41148;45.420;10.952;2023-09-30T04:33:00;101231.72;;;17.81;73.58
23427;BME280;41148;45.420;10.952;2023-09-30T04:35:28;101229.13;;;17.80;73.93
23427;BME280;41148;45.420;10.952;2023-09-30T04:37:58;101216.69;;;17.77;73.79
23427;BME280;41148;45.420;10.952;2023-09-30T04:40:31;101233.41;;;17.84;73.61
23427;BME280;41148;45.420;10.952;2023-09-30T04:43:05;101232.91;;;17.76;74.05
23427;BME280;41148;45.420;10.952;2023-09-30T04:45:38;101233.38;;;17.65;74.79
23427;BME280;41148;45.420;10.952;2023-09-30T04:48:05;101228.31;;;17.59;75.37
23427;BME280;41148;45.420;10.952;2023-09-30T04:50:33;101230.66;;;17.66;75.08
23427;BME280;41148;45.420;10.952;2023-09-30T04:53:01;101232.09;;;17.73;74.45
23427;BME280;41148;45.420;10.952;2023-09-30T04:55:32;101230.88;;;17.81;74.45
23427;BME280;41148;45.420;10.952;2023-09-30T04:58:05;101228.25;;;17.79;74.33
23427;BME280;41148;45.420;10.952;2023-09-30T05:00:33;101237.28;;;17.78;74.98
23427;BME280;41148;45.420;10.952;2023-09-30T05:03:02;101237.66;;;17.70;74.80
23427;BME280;41148;45.420;10.952;2023-09-30T05:05:30;101239.97;;;17.78;74.98
23427;BME280;41148;45.420;10.952;2023-09-30T05:07:57;101232.69;;;17.80;75.27
23427;BME280;41148;45.420;10.952;2023-09-30T05:10:28;101228.41;;;17.76;74.84
23427;BME280;41148;45.420;10.952;2023-09-30T05:12:56;101224.97;;;17.72;74.78
23427;BME280;41148;45.420;10.952;2023-09-30T05:15:25;101233.84;;;17.74;74.79
23427;BME280;41148;45.420;10.952;2023-09-30T05:17:53;101235.91;;;17.69;75.15
23427;BME280;41148;45.420;10.952;2023-09-30T05:20:21;101248.75;;;17.63;75.24
23427;BME280;41148;45.420;10.952;2023-09-30T05:22:50;101243.97;;;17.51;75.88
23427;BME280;41148;45.420;10.952;2023-09-30T05:25:20;101242.44;;;17.45;75.85
23427;BME280;41148;45.420;10.952;2023-09-30T05:27:53;101267.19;;;17.53;76.17
23427;BME280;41148;45.420;10.952;2023-09-30T05:30:21;101270.25;;;17.45;76.48
23427;BME280;41148;45.420;10.952;2023-09-30T05:32:50;101256.78;;;17.45;76.50
23427;BME280;41148;45.420;10.952;2023-09-30T05:35:19;101260.41;;;17.44;76.37
23427;BME280;41148;45.420;10.952;2023-09-30T05:37:50;101267.00;;;17.58;75.89
23427;BME280;41148;45.420;10.952;2023-09-30T05:40:20;101276.47;;;17.66;75.63
23427;BME280;41148;45.420;10.952;2023-09-30T05:42:54;101273.16;;;17.60;75.30
23427;BME280;41148;45.420;10.952;2023-09-30T05:45:22;101278.31;;;17.64;75.21
23427;BME280;41148;45.420;10.952;2023-09-30T05:47:57;101280.94;;;17.66;75.64
23427;BME280;41148;45.420;10.952;2023-09-30T05:50:30;101285.28;;;17.70;75.47
23427;BME280;41148;45.420;10.952;2023-09-30T05:52:58;101289.66;;;17.72;75.84
23427;BME280;41148;45.420;10.952;2023-09-30T05:55:26;101289.44;;;17.77;75.70
23427;BME280;41148;45.420;10.952;2023-09-30T05:57:55;101292.06;;;17.79;75.44
23427;BME280;41148;45.420;10.952;2023-09-30T06:00:27;101313.88;;;17.91;75.69
23427;BME280;41148;45.420;10.952;2023-09-30T06:03:01;101312.81;;;17.95;75.10
23427;BME280;41148;45.420;10.952;2023-09-30T06:05:30;101316.50;;;17.93;74.98
23427;BME280;41148;45.420;10.952;2023-09-30T06:08:00;101311.41;;;18.06;74.38
23427;BME280;41148;45.420;10.952;2023-09-30T06:10:34;101299.44;;;18.11;75.01
23427;BME280;41148;45.420;10.952;2023-09-30T06:13:05;101303.75;;;18.15;75.75
23427;BME280;41148;45.420;10.952;2023-09-30T06:15:33;101303.25;;;18.07;75.28
23427;BME280;41148;45.420;10.952;2023-09-30T06:18:00;101305.97;;;18.24;75.29
23427;BME280;41148;45.420;10.952;2023-09-30T06:20:28;101297.56;;;18.30;75.00
23427;BME280;41148;45.420;10.952;2023-09-30T06:22:59;101290.59;;;18.26;75.15
23427;BME280;41148;45.420;10.952;2023-09-30T06:25:32;101288.44;;;18.33;74.83
23427;BME280;41148;45.420;10.952;2023-09-30T06:28:01;101269.72;;;18.47;73.72
23427;BME280;41148;45.420;10.952;2023-09-30T06:30:28;101268.31;;;18.57;71.83
23427;BME280;41148;45.420;10.952;2023-09-30T06:33:01;101281.25;;;18.68;71.54
23427;BME280;41148;45.420;10.952;2023-09-30T06:35:32;101277.03;;;18.80;70.67
23427;BME280;41148;45.420;10.952;2023-09-30T06:38:07;101283.38;;;18.96;69.43
23427;BME280;41148;45.420;10.952;2023-09-30T06:40:40;101275.19;;;18.98;69.24
23427;BME280;41148;45.420;10.952;2023-09-30T06:43:10;101273.13;;;19.03;69.23
23427;BME280;41148;45.420;10.952;2023-09-30T06:45:37;101283.94;;;19.03;69.32
23427;BME280;41148;45.420;10.952;2023-09-30T06:48:12;101287.16;;;19.09;65.68
23427;BME280;41148;45.420;10.952;2023-09-30T06:50:47;101286.44;;;19.23;65.12
23427;BME280;41148;45.420;10.952;2023-09-30T06:53:16;101286.63;;;19.36;63.95
23427;BME280;41148;45.420;10.952;2023-09-30T06:55:47;101290.91;;;19.40;63.67
23427;BME280;41148;45.420;10.952;2023-09-30T06:58:15;101285.41;;;19.41;63.81
23427;BME280;41148;45.420;10.952;2023-09-30T07:00:52;101279.25;;;19.55;62.74
23427;BME280;41148;45.420;10.952;2023-09-30T07:03:21;101282.31;;;19.65;60.84
23427;BME280;41148;45.420;10.952;2023-09-30T07:05:53;101287.56;;;19.68;60.39
23427;BME280;41148;45.420;10.952;2023-09-30T07:08:22;101278.25;;;19.73;58.96
23427;BME280;41148;45.420;10.952;2023-09-30T07:10:50;101293.69;;;19.71;60.88
23427;BME280;41148;45.420;10.952;2023-09-30T07:13:21;101287.03;;;19.77;60.31
23427;BME280;41148;45.420;10.952;2023-09-30T07:15:49;101302.41;;;19.92;58.47
23427;BME280;41148;45.420;10.952;2023-09-30T07:18:19;101314.34;;;20.04;57.58
23427;BME280;41148;45.420;10.952;2023-09-30T07:20:49;101321.25;;;20.10;57.40
23427;BME280;41148;45.420;10.952;2023-09-30T07:23:19;101323.06;;;20.09;58.02
23427;BME280;41148;45.420;10.952;2023-09-30T07:25:47;101328.72;;;20.20;57.54
23427;BME280;41148;45.420;10.952;2023-09-30T07:28:16;101328.00;;;20.33;57.97
23427;BME280;41148;45.420;10.952;2023-09-30T07:30:46;101342.84;;;20.57;57.27
23427;BME280;41148;45.420;10.952;2023-09-30T07:33:14;101331.50;;;20.50;56.72
23427;BME280;41148;45.420;10.952;2023-09-30T07:35:44;101332.19;;;20.38;55.50
23427;BME280;41148;45.420;10.952;2023-09-30T07:38:11;101344.34;;;20.47;55.25
23427;BME280;41148;45.420;10.952;2023-09-30T07:40:39;101338.13;;;20.45;54.97
23427;BME280;41148;45.420;10.952;2023-09-30T07:43:08;101343.81;;;20.56;55.05
23427;BME280;41148;45.420;10.952;2023-09-30T07:45:36;101335.72;;;20.70;55.10
23427;BME280;41148;45.420;10.952;2023-09-30T07:48:04;101336.97;;;20.95;54.60
23427;BME280;41148;45.420;10.952;2023-09-30T07:50:32;101351.38;;;21.39;53.23
23427;BME280;41148;45.420;10.952;2023-09-30T07:53:03;101354.19;;;21.52;52.23
23427;BME280;41148;45.420;10.952;2023-09-30T07:55:32;101345.94;;;21.68;51.35
23427;BME280;41148;45.420;10.952;2023-09-30T07:58:02;101347.69;;;21.83;50.80
23427;BME280;41148;45.420;10.952;2023-09-30T08:00:33;101350.47;;;21.96;51.84
23427;BME280;41148;45.420;10.952;2023-09-30T08:03:01;101347.47;;;21.86;51.65
23427;BME280;41148;45.420;10.952;2023-09-30T08:05:31;101350.47;;;22.10;51.04
23427;BME280;41148;45.420;10.952;2023-09-30T08:07:59;101335.06;;;22.11;51.12
23427;BME280;41148;45.420;10.952;2023-09-30T08:10:31;101349.41;;;22.13;51.56
23427;BME280;41148;45.420;10.952;2023-09-30T08:12:59;101357.94;;;22.34;51.32
23427;BME280;41148;45.420;10.952;2023-09-30T08:15:30;101352.97;;;23.32;47.23
23427;BME280;41148;45.420;10.952;2023-09-30T08:17:58;101335.75;;;25.93;41.73
23427;BME280;41148;45.420;10.952;2023-09-30T08:20:27;101337.75;;;27.41;38.65
23427;BME280;41148;45.420;10.952;2023-09-30T08:22:55;101351.03;;;29.61;34.40
23427;BME280;41148;45.420;10.952;2023-09-30T08:25:23;101341.84;;;30.35;32.93
23427;BME280;41148;45.420;10.952;2023-09-30T08:27:51;101349.59;;;30.85;32.51
23427;BME280;41148;45.420;10.952;2023-09-30T08:30:22;101354.59;;;30.36;33.22
23427;BME280;41148;45.420;10.952;2023-09-30T08:32:50;101340.19;;;31.13;31.10
23427;BME280;41148;45.420;10.952;2023-09-30T08:35:18;101340.91;;;31.67;30.99
23427;BME280;41148;45.420;10.952;2023-09-30T08:37:45;101350.81;;;32.28;29.91
23427;BME280;41148;45.420;10.952;2023-09-30T08:40:14;101363.91;;;32.26;29.48
23427;BME280;41148;45.420;10.952;2023-09-30T08:42:41;101348.38;;;32.17;30.09
23427;BME280;41148;45.420;10.952;2023-09-30T08:45:12;101341.28;;;32.73;29.50
23427;BME280;41148;45.420;10.952;2023-09-30T08:47:45;101334.22;;;33.11;28.88
23427;BME280;41148;45.420;10.952;2023-09-30T08:50:14;101341.59;;;33.51;28.54
23427;BME280;41148;45.420;10.952;2023-09-30T08:52:43;101336.50;;;33.79;28.28
23427;BME280;41148;45.420;10.952;2023-09-30T08:55:11;101338.34;;;32.83;28.44
23427;BME280;41148;45.420;10.952;2023-09-30T08:57:42;101336.00;;;32.29;29.74
23427;BME280;41148;45.420;10.952;2023-09-30T09:00:11;101328.84;;;32.44;29.63
23427;BME280;41148;45.420;10.952;2023-09-30T09:02:39;101336.44;;;32.75;29.85
23427;BME280;41148;45.420;10.952;2023-09-30T09:05:10;101340.25;;;32.07;30.31
23427;BME280;41148;45.420;10.952;2023-09-30T09:07:39;101339.03;;;31.42;32.34
23427;BME280;41148;45.420;10.952;2023-09-30T09:10:10;101339.03;;;30.44;33.20
23427;BME280;41148;45.420;10.952;2023-09-30T09:12:42;101352.94;;;29.51;35.02
23427;BME280;41148;45.420;10.952;2023-09-30T09:15:24;101347.84;;;28.99;36.24
23427;BME280;41148;45.420;10.952;2023-09-30T09:17:52;101342.41;;;28.11;37.81
23427;BME280;41148;45.420;10.952;2023-09-30T09:20:25;101346.97;;;27.60;38.38
23427;BME280;41148;45.420;10.952;2023-09-30T09:22:54;101342.47;;;26.55;40.92
23427;BME280;41148;45.420;10.952;2023-09-30T09:25:38;101335.28;;;26.54;41.01
23427;BME280;41148;45.420;10.952;2023-09-30T09:28:08;101333.47;;;26.21;42.06
23427;BME280;41148;45.420;10.952;2023-09-30T09:30:38;101341.06;;;26.17;42.32
23427;BME280;41148;45.420;10.952;2023-09-30T09:33:10;101320.53;;;25.80;42.72
23427;BME280;41148;45.420;10.952;2023-09-30T09:35:37;101326.97;;;25.67;43.39
23427;BME280;41148;45.420;10.952;2023-09-30T09:38:07;101343.72;;;25.74;44.53
23427;BME280;41148;45.420;10.952;2023-09-30T09:40:36;101348.28;;;25.62;44.69
23427;BME280;41148;45.420;10.952;2023-09-30T09:43:09;101346.28;;;25.53;45.17
23427;BME280;41148;45.420;10.952;2023-09-30T09:45:38;101350.34;;;25.25;44.98
23427;BME280;41148;45.420;10.952;2023-09-30T09:48:09;101348.00;;;25.21;46.25
23427;BME280;41148;45.420;10.952;2023-09-30T09:50:38;101349.84;;;25.20;45.59
23427;BME280;41148;45.420;10.952;2023-09-30T09:53:07;101359.25;;;25.16;46.13
23427;BME280;41148;45.420;10.952;2023-09-30T09:55:36;101357.94;;;24.98;46.55
23427;BME280;41148;45.420;10.952;2023-09-30T09:58:08;101359.63;;;25.11;46.37
23427;BME280;41148;45.420;10.952;2023-09-30T10:00:40;101347.03;;;24.98;46.43
23427;BME280;41148;45.420;10.952;2023-09-30T10:03:10;101361.13;;;25.27;44.81
23427;BME280;41148;45.420;10.952;2023-09-30T10:05:41;101353.19;;;25.24;45.60
23427;BME280;41148;45.420;10.952;2023-09-30T10:08:17;101363.25;;;25.34;46.18
23427;BME280;41148;45.420;10.952;2023-09-30T10:10:47;101369.59;;;25.46;45.98
23427;BME280;41148;45.420;10.952;2023-09-30T10:19:21;101348.16;;;25.53;45.50
23427;BME280;41148;45.420;10.952;2023-09-30T10:22:20;101346.16;;;25.44;45.03
23427;BME280;41148;45.420;10.952;2023-09-30T10:24:56;101345.41;;;25.19;44.96
23427;BME280;41148;45.420;10.952;2023-09-30T10:40:58;101345.03;;;25.57;45.49
23427;BME280;41148;45.420;10.952;2023-09-30T10:43:33;101336.72;;;25.48;45.22
23427;BME280;41148;45.420;10.952;2023-09-30T10:46:02;101338.50;;;25.60;45.56
23427;BME280;41148;45.420;10.952;2023-09-30T10:48:34;101332.50;;;25.66;44.42
23427;BME280;41148;45.420;10.952;2023-09-30T10:53:44;101333.53;;;25.76;44.30
23427;BME280;41148;45.420;10.952;2023-09-30T10:56:13;101328.94;;;25.77;45.02
23427;BME280;41148;45.420;10.952;2023-09-30T11:01:25;101318.88;;;25.66;45.03
23427;BME280;41148;45.420;10.952;2023-09-30T11:04:04;101317.16;;;25.43;45.69
23427;BME280;41148;45.420;10.952;2023-09-30T11:06:34;101315.41;;;25.53;45.67
23427;BME280;41148;45.420;10.952;2023-09-30T11:09:02;101310.06;;;25.62;45.90
23427;BME280;41148;45.420;10.952;2023-09-30T11:11:34;101302.16;;;25.82;46.38
23427;BME280;41148;45.420;10.952;2023-09-30T11:14:02;101302.88;;;25.95;45.82
23427;BME280;41148;45.420;10.952;2023-09-30T11:16:29;101307.78;;;26.12;45.66
23427;BME280;41148;45.420;10.952;2023-09-30T11:18:58;101289.31;;;26.16;46.13
23427;BME280;41148;45.420;10.952;2023-09-30T11:21:26;101280.13;;;26.17;46.42
23427;BME280;41148;45.420;10.952;2023-09-30T11:23:56;101269.56;;;26.12;45.81
23427;BME280;41148;45.420;10.952;2023-09-30T11:26:30;101265.97;;;26.12;46.87
23427;BME280;41148;45.420;10.952;2023-09-30T11:29:11;101269.09;;;26.07;46.46
